Startpagina
METAR-TAF:

METAR-TAF

Vliegvelden :

Meiringen, Zwitserland

breedte: 46-44-25N, lengte: 8-06-36E, hoogte: 577 m

Actueel weer

Dit bericht is 11 minuten geleden gemaakt, om 16:20 UTC
Wind 2 kt uit variabele richting
Temperatuur 4°C
Vochtigheid 56%
Druk 1018 hPa
Zicht 10 km of meer
Gebroken wolken op 9100 ft

METAR: LSMM 281620Z AUTO VRB02KT 9999NDV BKN091 04/M04 Q1018 RMK

Tijdstip: 17:31 (16:31 UTC)


TAF: ontbreekt

Waarnemingen en weersverwachtingen van meer dan 4000 vliegvelden (METAR en TAF).

De beschikbare stations zijn de gele en rode punten op de kaart.

Ga met uw muis naar het station om de naam te zien.

Klik dan om waarnemingen en weersverwachtingen te zien.

kaart wijzigen: klik op de groene knoppen met een zwart kruis om in te zoomen, op de groene knop met een streepje om uit te zoomen of op de groene pijlen voor aangrenzende kaarten.


METAR-TAF: